createdAt,value
2018-07-08T00:01:06.615Z,2.97
2018-07-08T00:03:34.080Z,1.87
2018-07-08T00:06:01.656Z,1.50
2018-07-08T00:08:29.898Z,2.10
2018-07-08T00:10:57.382Z,1.63
2018-07-08T00:13:24.848Z,2.00
2018-07-08T00:15:52.323Z,1.70
2018-07-08T00:18:19.879Z,2.23
2018-07-08T00:20:47.439Z,1.63
2018-07-08T00:23:14.895Z,1.50
2018-07-08T00:25:42.375Z,1.90
2018-07-08T00:28:09.845Z,1.47
2018-07-08T00:30:38.072Z,1.60
2018-07-08T00:33:05.540Z,1.70
2018-07-08T00:35:32.994Z,1.87
2018-07-08T00:38:00.452Z,2.30
2018-07-08T00:40:27.911Z,2.10
2018-07-08T00:42:55.411Z,1.93
2018-07-08T00:45:22.871Z,1.70
2018-07-08T00:47:50.443Z,1.60
2018-07-08T00:50:17.910Z,2.27
2018-07-08T00:52:45.470Z,1.70
2018-07-08T00:55:13.029Z,1.53
2018-07-08T00:57:40.510Z,2.07
2018-07-08T01:00:08.057Z,2.07
2018-07-08T01:02:35.507Z,1.93
2018-07-08T01:05:02.973Z,1.67
2018-07-08T01:07:30.437Z,2.27
2018-07-08T01:09:57.953Z,2.07
2018-07-08T01:12:26.244Z,1.93
2018-07-08T01:14:53.699Z,1.80
2018-07-08T01:17:21.172Z,1.80
2018-07-08T01:19:48.635Z,2.03
2018-07-08T01:22:16.095Z,2.00
2018-07-08T01:24:44.207Z,2.27
2018-07-08T01:27:11.636Z,1.90
2018-07-08T01:29:39.162Z,1.70
2018-07-08T01:32:07.425Z,2.27
2018-07-08T01:34:35.656Z,2.47
2018-07-08T01:37:03.119Z,1.67
2018-07-08T01:39:30.590Z,2.20
2018-07-08T01:41:58.071Z,1.40
2018-07-08T01:44:25.797Z,2.00
2018-07-08T01:46:53.898Z,2.30
2018-07-08T01:49:21.393Z,2.30
2018-07-08T01:51:48.854Z,2.23
2018-07-08T01:54:16.411Z,1.60
2018-07-08T01:56:43.880Z,2.20
2018-07-08T01:59:11.355Z,1.90
2018-07-08T02:01:40.324Z,2.00
2018-07-08T02:04:07.791Z,1.73
2018-07-08T02:06:35.376Z,2.33
2018-07-08T02:09:02.845Z,2.03
2018-07-08T02:11:31.107Z,1.83
2018-07-08T02:13:58.573Z,2.47
2018-07-08T02:16:26.040Z,1.70
2018-07-08T02:18:53.490Z,1.77
2018-07-08T02:21:20.946Z,1.90
2018-07-08T02:23:48.409Z,1.70
2018-07-08T02:26:15.878Z,2.10
2018-07-08T02:28:43.349Z,1.60
2018-07-08T02:31:10.812Z,1.73
2018-07-08T02:33:39.804Z,1.93
2018-07-08T02:36:07.375Z,2.10
2018-07-08T02:38:34.838Z,1.90
2018-07-08T02:41:03.824Z,1.57
2018-07-08T02:43:31.357Z,1.87
2018-07-08T02:45:58.840Z,1.60
2018-07-08T02:48:26.292Z,2.00
2018-07-08T02:50:53.788Z,2.20
2018-07-08T02:53:21.247Z,1.43
2018-07-08T02:55:48.707Z,1.93
2018-07-08T02:58:16.939Z,2.20
2018-07-08T03:00:44.403Z,1.90
2018-07-08T03:03:11.860Z,1.93
2018-07-08T03:05:39.331Z,1.80
2018-07-08T03:08:06.787Z,1.63
2018-07-08T03:10:34.251Z,1.50
2018-07-08T03:13:01.707Z,2.10
2018-07-08T03:15:29.224Z,1.83
2018-07-08T03:17:57.456Z,1.70
2018-07-08T03:20:25.529Z,1.97
2018-07-08T03:22:52.996Z,1.47
2018-07-08T03:25:20.496Z,1.50
2018-07-08T03:27:47.947Z,1.73
2018-07-08T03:30:15.508Z,2.37
2018-07-08T03:32:43.076Z,2.53
2018-07-08T03:35:10.539Z,2.10
2018-07-08T03:37:38.007Z,1.83
2018-07-08T03:40:05.570Z,2.20
2018-07-08T03:42:33.138Z,2.00
2018-07-08T03:45:00.612Z,2.40
2018-07-08T03:47:28.148Z,1.70
2018-07-08T03:49:55.611Z,2.00
2018-07-08T03:52:23.183Z,1.93
2018-07-08T03:54:50.645Z,2.03
2018-07-08T03:57:18.115Z,2.07
2018-07-08T03:59:45.585Z,2.50
2018-07-08T04:02:13.048Z,1.70
2018-07-08T04:04:42.031Z,1.73
2018-07-08T04:07:09.599Z,2.00
2018-07-08T04:09:37.155Z,1.90
2018-07-08T04:12:04.616Z,1.90
2018-07-08T04:14:32.178Z,1.70
2018-07-08T04:16:59.652Z,2.20
2018-07-08T04:19:27.121Z,1.80
2018-07-08T04:21:55.339Z,1.90
2018-07-08T04:24:22.814Z,1.90
2018-07-08T04:26:50.316Z,2.30
2018-07-08T04:29:17.871Z,1.60
2018-07-08T04:31:45.340Z,2.07
2018-07-08T04:34:12.810Z,1.40
2018-07-08T04:36:40.272Z,2.10
2018-07-08T04:39:07.735Z,2.20
2018-07-08T04:41:36.824Z,2.10
2018-07-08T04:44:04.290Z,2.50
2018-07-08T04:46:31.763Z,2.23
2018-07-08T04:48:59.220Z,2.57
2018-07-08T04:51:26.832Z,2.03
2018-07-08T04:53:54.333Z,2.23
2018-07-08T04:56:21.903Z,1.80
2018-07-08T04:58:49.457Z,2.03
2018-07-08T05:01:16.929Z,1.90
2018-07-08T05:03:44.394Z,1.73
2018-07-08T05:06:11.958Z,2.00
2018-07-08T05:08:39.531Z,2.27
2018-07-08T05:11:06.977Z,2.40
2018-07-08T05:13:34.451Z,1.83
2018-07-08T05:16:02.710Z,2.40
2018-07-08T05:18:30.452Z,1.80
2018-07-08T05:20:57.995Z,2.60
2018-07-08T05:23:25.426Z,2.03
2018-07-08T05:25:52.888Z,2.33
2018-07-08T05:28:20.357Z,2.90
2018-07-08T05:30:47.826Z,2.87
2018-07-08T05:33:16.076Z,1.90
2018-07-08T05:35:43.572Z,1.70
2018-07-08T05:38:11.014Z,2.47
2018-07-08T05:40:38.476Z,1.80
2018-07-08T05:43:05.942Z,2.20
2018-07-08T05:45:33.415Z,2.23
2018-07-08T05:48:00.881Z,2.33
2018-07-08T05:50:28.422Z,1.60
2018-07-08T05:52:55.903Z,1.90
2018-07-08T05:55:24.859Z,1.60
2018-07-08T05:57:52.326Z,2.10
2018-07-08T06:00:19.793Z,1.83
2018-07-08T06:02:47.247Z,1.73
2018-07-08T06:05:14.824Z,1.70
2018-07-08T06:07:42.285Z,2.10
2018-07-08T06:10:09.849Z,1.93
2018-07-08T06:12:37.412Z,1.90
2018-07-08T06:15:04.868Z,1.47
2018-07-08T06:17:32.444Z,1.50
2018-07-08T06:20:00.013Z,1.80
2018-07-08T06:22:27.586Z,1.60
2018-07-08T06:24:55.073Z,1.60
2018-07-08T06:27:23.303Z,1.83
2018-07-08T06:29:50.779Z,1.20
2018-07-08T06:32:18.346Z,1.57
2018-07-08T06:34:45.900Z,1.53
2018-07-08T06:37:13.368Z,1.60
2018-07-08T06:39:40.927Z,1.43
2018-07-08T06:42:08.501Z,1.73
2018-07-08T06:44:36.062Z,1.50
2018-07-08T06:47:03.523Z,1.40
2018-07-08T06:49:30.992Z,1.50
2018-07-08T06:51:58.593Z,1.40
2018-07-08T06:54:25.995Z,1.40
2018-07-08T06:56:53.454Z,1.43
2018-07-08T06:59:20.947Z,1.60
2018-07-08T07:01:49.223Z,1.80
2018-07-08T07:04:16.683Z,1.37
2018-07-08T07:06:44.287Z,1.20
2018-07-08T07:09:11.811Z,1.50
2018-07-08T07:11:40.529Z,1.63
2018-07-08T07:14:08.752Z,1.40
2018-07-08T07:16:36.214Z,1.73
2018-07-08T07:19:03.691Z,1.20
2018-07-08T07:21:31.143Z,1.20
2018-07-08T07:23:58.612Z,1.30
2018-07-08T07:26:26.074Z,1.37
2018-07-08T07:28:53.644Z,1.30
2018-07-08T07:31:21.120Z,1.20
2018-07-08T07:33:48.675Z,1.30
2018-07-08T07:36:16.247Z,1.30
2018-07-08T07:38:43.702Z,1.27
2018-07-08T07:41:11.172Z,1.40
2018-07-08T07:43:38.722Z,1.20
2018-07-08T07:46:06.295Z,1.27
2018-07-08T07:48:33.772Z,1.30
2018-07-08T07:51:01.223Z,1.17
2018-07-08T07:53:28.791Z,1.00
2018-07-08T07:55:56.252Z,1.03
2018-07-08T07:58:23.809Z,1.10
2018-07-08T08:00:51.379Z,1.00
2018-07-08T08:03:18.852Z,1.00
2018-07-08T08:05:46.318Z,1.10
2018-07-08T08:08:14.627Z,1.00
2018-07-08T08:10:42.148Z,1.00
2018-07-08T08:13:09.552Z,1.07
2018-07-08T08:15:37.064Z,1.40
2018-07-08T08:18:04.527Z,0.90
2018-07-08T08:20:32.087Z,1.00
2018-07-08T08:22:59.562Z,1.30
2018-07-08T08:25:27.007Z,0.90
2018-07-08T08:27:54.460Z,1.00
2018-07-08T08:30:21.922Z,1.00
2018-07-08T08:32:49.462Z,1.00
2018-07-08T08:35:16.833Z,1.00
2018-07-08T08:37:44.332Z,1.13
2018-07-08T08:40:11.799Z,1.00
2018-07-08T08:42:39.256Z,1.00
2018-07-08T08:45:06.729Z,1.10
2018-07-08T08:47:34.945Z,0.97
2018-07-08T08:50:02.459Z,0.83
2018-07-08T08:52:29.953Z,0.77
2018-07-08T08:54:57.363Z,1.07
2018-07-08T08:57:24.831Z,0.80
2018-07-08T08:59:52.292Z,1.20
2018-07-08T09:02:19.778Z,1.20
2018-07-08T09:04:48.749Z,0.97
2018-07-08T09:07:16.695Z,1.00
2018-07-08T09:09:44.160Z,1.00
2018-07-08T09:12:11.646Z,1.10
2018-07-08T09:14:39.224Z,0.90
2018-07-08T09:17:06.688Z,1.10
2018-07-08T09:19:34.253Z,1.00
2018-07-08T09:22:01.708Z,1.23
2018-07-08T09:24:29.281Z,1.07
2018-07-08T09:26:56.735Z,1.10
2018-07-08T09:29:24.272Z,0.90
2018-07-08T09:31:51.660Z,1.10
2018-07-08T09:34:19.128Z,1.13
2018-07-08T09:36:46.579Z,1.23
2018-07-08T09:39:14.227Z,1.27
2018-07-08T09:41:41.515Z,1.00
2018-07-08T09:44:09.229Z,1.30
2018-07-08T09:46:36.698Z,1.00
2018-07-08T09:49:04.164Z,1.27
2018-07-08T09:51:31.627Z,1.13
2018-07-08T09:53:59.096Z,1.00
2018-07-08T09:56:26.564Z,1.07
2018-07-08T09:58:54.057Z,0.90
2018-07-08T10:01:21.617Z,1.10
2018-07-08T10:03:49.085Z,0.90
2018-07-08T10:06:16.666Z,1.00
2018-07-08T10:08:44.157Z,1.00
2018-07-08T10:11:12.384Z,1.10
2018-07-08T10:13:40.007Z,0.90
2018-07-08T10:16:07.412Z,0.90
2018-07-08T10:18:34.898Z,0.80
2018-07-08T10:21:03.158Z,1.00
2018-07-08T10:23:30.615Z,1.00
2018-07-08T10:25:58.171Z,0.80
2018-07-08T10:28:25.636Z,0.80
2018-07-08T10:30:53.121Z,0.80
2018-07-08T10:33:20.583Z,0.80
2018-07-08T10:35:48.055Z,0.90
2018-07-08T10:38:15.628Z,0.73
2018-07-08T10:40:43.071Z,0.80
2018-07-08T10:43:10.626Z,0.87
2018-07-08T10:45:38.097Z,0.70
2018-07-08T10:48:05.551Z,0.70
2018-07-08T10:50:33.022Z,1.00
2018-07-08T10:53:00.488Z,0.80
2018-07-08T10:55:28.007Z,0.90
2018-07-08T10:57:56.214Z,0.80
2018-07-08T11:00:23.766Z,0.70
2018-07-08T11:02:52.505Z,0.80
2018-07-08T11:05:20.733Z,0.77
2018-07-08T11:07:48.204Z,0.80
2018-07-08T11:10:15.777Z,1.00
2018-07-08T11:12:43.246Z,0.80
2018-07-08T11:15:10.693Z,0.80
2018-07-08T11:17:38.161Z,0.70
2018-07-08T11:20:05.629Z,0.87
2018-07-08T11:22:33.099Z,0.60
2018-07-08T11:25:00.576Z,0.70
2018-07-08T11:27:28.824Z,0.80
2018-07-08T11:29:56.275Z,0.90
2018-07-08T11:32:23.736Z,0.67
2018-07-08T11:34:51.215Z,1.00
2018-07-08T11:37:18.685Z,0.77
2018-07-08T11:39:46.147Z,0.63
2018-07-08T11:42:13.608Z,0.90
2018-07-08T11:44:41.160Z,0.70
2018-07-08T11:47:08.738Z,0.90
2018-07-08T11:49:36.195Z,0.80
2018-07-08T11:52:03.662Z,1.00
2018-07-08T11:54:31.120Z,0.87
2018-07-08T11:56:58.584Z,0.93
2018-07-08T11:59:27.570Z,0.57
2018-07-08T12:01:55.045Z,0.90
2018-07-08T12:04:22.595Z,0.70
2018-07-08T12:06:50.047Z,0.83
2018-07-08T12:09:17.508Z,0.87
2018-07-08T12:11:45.046Z,0.80
2018-07-08T12:14:12.559Z,0.80
2018-07-08T12:16:40.035Z,0.60
2018-07-08T12:19:07.580Z,0.80
2018-07-08T12:21:35.149Z,0.90
2018-07-08T12:24:02.599Z,0.77
2018-07-08T12:26:30.172Z,1.00
2018-07-08T12:28:57.693Z,0.70
2018-07-08T12:31:25.144Z,0.80
2018-07-08T12:33:52.642Z,1.00
2018-07-08T12:36:20.127Z,1.00
2018-07-08T12:38:47.680Z,0.50
2018-07-08T12:41:15.244Z,0.73
2018-07-08T12:43:42.816Z,0.63
2018-07-08T12:46:10.393Z,0.80
2018-07-08T12:48:37.852Z,0.90
2018-07-08T12:51:05.301Z,0.80
2018-07-08T12:53:32.770Z,0.90
2018-07-08T12:56:00.232Z,0.93
2018-07-08T12:58:30.205Z,0.90
2018-07-08T13:00:57.639Z,1.10
2018-07-08T13:03:25.865Z,0.90
2018-07-08T13:05:53.322Z,1.07
2018-07-08T13:08:20.813Z,0.93
2018-07-08T13:10:48.371Z,0.80
2018-07-08T13:13:15.931Z,0.80
2018-07-08T13:15:43.504Z,0.87
2018-07-08T13:18:10.984Z,0.67
2018-07-08T13:20:38.542Z,1.00
2018-07-08T13:23:06.090Z,0.90
2018-07-08T13:25:33.557Z,0.70
2018-07-08T13:28:01.032Z,0.93
2018-07-08T13:30:28.491Z,0.90
2018-07-08T13:32:56.727Z,0.80
2018-07-08T13:35:24.223Z,1.10
2018-07-08T13:37:52.511Z,0.93
2018-07-08T13:40:19.981Z,0.90
2018-07-08T13:42:47.436Z,0.83
2018-07-08T13:45:16.523Z,0.93
2018-07-08T13:47:43.996Z,0.70
2018-07-08T13:50:11.560Z,0.83
2018-07-08T13:52:39.791Z,0.80
2018-07-08T13:55:07.260Z,0.90
2018-07-08T13:57:34.740Z,0.90
2018-07-08T14:00:02.203Z,1.00
2018-07-08T14:02:29.683Z,0.80
2018-07-08T14:04:57.248Z,0.93
2018-07-08T14:07:24.715Z,0.90
2018-07-08T14:09:52.275Z,0.80
2018-07-08T14:12:20.567Z,1.00
2018-07-08T14:14:48.177Z,0.70
2018-07-08T14:17:16.257Z,0.80
2018-07-08T14:19:44.751Z,0.70
2018-07-08T14:22:12.241Z,3.03
2018-07-08T14:24:39.711Z,0.80
2018-07-08T14:27:07.267Z,0.90
2018-07-08T14:29:34.838Z,0.80
2018-07-08T14:32:02.303Z,0.90
2018-07-08T14:34:31.288Z,0.80
2018-07-08T14:36:58.773Z,1.10
2018-07-08T14:39:27.764Z,0.80
2018-07-08T14:41:56.731Z,0.90
2018-07-08T14:44:24.299Z,0.90
2018-07-08T14:46:51.767Z,0.80
2018-07-08T14:49:19.394Z,1.00
2018-07-08T14:51:46.920Z,0.80
2018-07-08T14:54:15.951Z,0.80
2018-07-08T14:56:43.471Z,0.70
2018-07-08T14:59:11.701Z,0.90
2018-07-08T15:01:39.157Z,1.00
2018-07-08T15:04:06.621Z,1.17
2018-07-08T15:06:34.072Z,1.00
2018-07-08T15:09:02.341Z,0.80
2018-07-08T15:11:30.570Z,0.83
2018-07-08T15:13:58.045Z,0.80
2018-07-08T15:16:25.577Z,1.00
2018-07-08T15:18:53.764Z,0.97
2018-07-08T15:21:21.260Z,0.90
2018-07-08T15:23:48.712Z,0.70
2018-07-08T15:26:16.179Z,0.90
2018-07-08T15:28:43.653Z,0.97
2018-07-08T15:31:11.120Z,1.30
2018-07-08T15:33:40.098Z,1.60
2018-07-08T15:36:08.196Z,1.90
2018-07-08T15:38:35.609Z,1.57
2018-07-08T15:41:03.142Z,1.40
2018-07-08T15:43:31.445Z,1.03
2018-07-08T15:45:58.908Z,1.30
2018-07-08T15:48:26.373Z,1.10
2018-07-08T15:50:53.825Z,0.90
2018-07-08T15:53:21.343Z,1.00
2018-07-08T15:55:50.320Z,1.10
2018-07-08T15:58:17.829Z,0.80
2018-07-08T16:00:45.246Z,1.03
2018-07-08T16:03:12.716Z,1.30
2018-07-08T16:05:40.173Z,1.10
2018-07-08T16:08:07.639Z,4.33
2018-07-08T16:10:35.269Z,5.60
2018-07-08T16:13:02.990Z,6.83
2018-07-08T16:15:30.568Z,5.73
2018-07-08T16:17:58.017Z,4.87
2018-07-08T16:20:25.567Z,3.27
2018-07-08T16:22:53.020Z,3.63
2018-07-08T16:25:20.477Z,6.33
2018-07-08T16:27:47.953Z,9.13
2018-07-08T16:30:15.417Z,8.70
2018-07-08T16:32:42.880Z,9.80
2018-07-08T16:35:10.339Z,5.60
2018-07-08T16:37:37.808Z,4.33
2018-07-08T16:40:05.369Z,5.43
2018-07-08T16:42:32.832Z,5.63
2018-07-08T16:45:01.850Z,4.90
2018-07-08T16:47:30.642Z,4.90
2018-07-08T16:49:58.199Z,3.97
2018-07-08T16:52:26.490Z,2.70
2018-07-08T16:54:54.732Z,2.57
2018-07-08T16:57:22.188Z,3.40
2018-07-08T16:59:49.659Z,5.27
2018-07-08T17:02:17.272Z,2.93
2018-07-08T17:04:44.587Z,2.13
2018-07-08T17:07:12.187Z,1.93
2018-07-08T17:09:40.442Z,2.07
2018-07-08T17:12:08.001Z,1.87
2018-07-08T17:14:35.463Z,2.20
2018-07-08T17:17:03.040Z,3.00
2018-07-08T17:19:30.498Z,2.00
2018-07-08T17:21:57.951Z,2.03
2018-07-08T17:24:25.415Z,8.97
2018-07-08T17:26:52.979Z,10.23
2018-07-08T17:29:20.447Z,9.00
2018-07-08T17:31:48.275Z,6.03
2018-07-08T17:34:15.733Z,8.00
2018-07-08T17:36:43.212Z,10.87
2018-07-08T17:39:10.671Z,9.60
2018-07-08T17:41:38.139Z,7.53
2018-07-08T17:44:05.604Z,7.73
2018-07-08T17:46:33.119Z,6.87
2018-07-08T17:49:00.545Z,3.87
2018-07-08T17:51:28.108Z,3.77
2018-07-08T17:53:55.695Z,3.37
2018-07-08T17:56:23.247Z,2.80
2018-07-08T17:58:50.706Z,2.50
2018-07-08T18:01:18.165Z,2.37
2018-07-08T18:03:45.629Z,2.03
2018-07-08T18:06:13.099Z,1.60
2018-07-08T18:08:40.959Z,1.93
2018-07-08T18:11:08.523Z,3.27
2018-07-08T18:13:36.088Z,3.30
2018-07-08T18:16:03.551Z,1.80
2018-07-08T18:18:31.012Z,1.13
2018-07-08T18:20:58.484Z,1.20
2018-07-08T18:23:25.939Z,1.10
2018-07-08T18:25:53.412Z,1.00
2018-07-08T18:28:20.964Z,1.10
2018-07-08T18:30:48.437Z,0.83
2018-07-08T18:33:16.749Z,1.10
2018-07-08T18:35:45.674Z,1.30
2018-07-08T18:38:13.136Z,2.00
2018-07-08T18:40:40.641Z,3.73
2018-07-08T18:43:09.831Z,4.23
2018-07-08T18:45:37.284Z,3.87
2018-07-08T18:48:04.813Z,2.30
2018-07-08T18:50:32.287Z,1.40
2018-07-08T18:52:59.745Z,1.20
2018-07-08T18:55:27.207Z,1.20
2018-07-08T18:57:56.232Z,1.23
2018-07-08T19:00:23.818Z,1.10
2018-07-08T19:02:51.392Z,1.23
2018-07-08T19:05:20.350Z,1.00
2018-07-08T19:07:47.927Z,1.00
2018-07-08T19:10:15.415Z,1.27
2018-07-08T19:12:42.973Z,1.00
2018-07-08T19:15:10.523Z,1.00
2018-07-08T19:17:37.993Z,1.00
2018-07-08T19:20:05.480Z,1.30
2018-07-08T19:22:33.689Z,1.10
2018-07-08T19:25:01.190Z,1.10
2018-07-08T19:27:29.220Z,0.90
2018-07-08T19:29:56.681Z,1.10
2018-07-08T19:32:24.134Z,1.30
2018-07-08T19:34:51.628Z,1.30
2018-07-08T19:37:19.077Z,1.50
2018-07-08T19:39:46.537Z,1.30
2018-07-08T19:42:14.096Z,1.10
2018-07-08T19:44:41.563Z,1.23
2018-07-08T19:47:09.035Z,1.30
2018-07-08T19:49:36.490Z,1.47
2018-07-08T19:52:03.947Z,1.40
2018-07-08T19:54:31.444Z,1.57
2018-07-08T19:56:58.919Z,1.63
2018-07-08T19:59:27.148Z,1.47
2018-07-08T20:01:54.599Z,1.13
2018-07-08T20:04:22.056Z,1.33
2018-07-08T20:06:50.291Z,1.30
2018-07-08T20:09:17.765Z,1.30
2018-07-08T20:11:45.999Z,1.57
2018-07-08T20:14:13.507Z,1.43
2018-07-08T20:16:41.082Z,1.50
2018-07-08T20:19:08.619Z,1.43
2018-07-08T20:21:36.208Z,1.37
2018-07-08T20:24:03.652Z,1.30
2018-07-08T20:26:31.223Z,1.53
2018-07-08T20:28:58.685Z,1.30
2018-07-08T20:31:26.136Z,1.40
2018-07-08T20:33:53.667Z,1.47
2018-07-08T20:36:21.125Z,1.30
2018-07-08T20:38:48.595Z,1.63
2018-07-08T20:41:16.150Z,1.63
2018-07-08T20:43:43.591Z,1.50
2018-07-08T20:46:12.213Z,1.77
2018-07-08T20:48:39.685Z,1.37
2018-07-08T20:51:07.162Z,1.37
2018-07-08T20:53:34.624Z,1.47
2018-07-08T20:56:02.187Z,1.83
2018-07-08T20:58:29.650Z,1.13
2018-07-08T21:00:57.145Z,1.47
2018-07-08T21:03:25.369Z,1.30
2018-07-08T21:05:52.873Z,1.60
2018-07-08T21:08:22.750Z,1.50
2018-07-08T21:10:50.204Z,1.40
2018-07-08T21:13:17.664Z,1.60
2018-07-08T21:15:45.152Z,1.60
2018-07-08T21:18:12.630Z,1.50
2018-07-08T21:20:40.090Z,1.77
2018-07-08T21:23:08.035Z,1.53
2018-07-08T21:25:35.506Z,2.17
2018-07-08T21:28:02.971Z,1.87
2018-07-08T21:30:30.439Z,1.90
2018-07-08T21:32:58.017Z,1.80
2018-07-08T21:35:25.478Z,1.83
2018-07-08T21:37:53.088Z,2.63
2018-07-08T21:40:21.313Z,1.77
2018-07-08T21:42:48.779Z,1.80
2018-07-08T21:45:16.343Z,1.90
2018-07-08T21:47:43.800Z,1.40
2018-07-08T21:50:11.271Z,2.33
2018-07-08T21:52:38.732Z,1.90
2018-07-08T21:55:06.204Z,2.33
2018-07-08T21:57:33.662Z,1.77
2018-07-08T22:00:01.127Z,1.47
2018-07-08T22:02:29.342Z,2.23
2018-07-08T22:04:56.861Z,2.00
2018-07-08T22:07:24.426Z,2.13
2018-07-08T22:09:51.888Z,1.80
2018-07-08T22:12:19.448Z,2.17
2018-07-08T22:14:46.921Z,2.50
2018-07-08T22:17:15.376Z,1.87
2018-07-08T22:19:42.859Z,2.50
2018-07-08T22:22:10.323Z,2.53
2018-07-08T22:24:37.782Z,1.83
2018-07-08T22:27:05.355Z,2.13
2018-07-08T22:29:33.591Z,1.70
2018-07-08T22:32:01.092Z,2.17
2018-07-08T22:34:29.321Z,2.57
2018-07-08T22:36:56.783Z,1.90
2018-07-08T22:39:24.263Z,2.10
2018-07-08T22:41:52.232Z,1.93
2018-07-08T22:44:19.680Z,2.10
2018-07-08T22:46:47.204Z,2.47
2018-07-08T22:49:15.427Z,2.37
2018-07-08T22:51:42.884Z,2.30
2018-07-08T22:54:10.345Z,2.60
2018-07-08T22:56:37.792Z,2.10
2018-07-08T22:59:06.031Z,2.00
2018-07-08T23:01:37.486Z,1.77
2018-07-08T23:04:04.959Z,1.70
2018-07-08T23:06:32.419Z,2.63
2018-07-08T23:08:59.900Z,1.90
2018-07-08T23:11:28.155Z,1.93
2018-07-08T23:13:55.712Z,2.07
2018-07-08T23:16:23.299Z,1.97
2018-07-08T23:18:50.746Z,2.20
2018-07-08T23:21:18.218Z,1.73
2018-07-08T23:23:46.495Z,2.30
2018-07-08T23:26:13.958Z,1.90
2018-07-08T23:28:42.191Z,2.67
2018-07-08T23:31:09.656Z,2.30
2018-07-08T23:33:37.101Z,1.80
2018-07-08T23:36:04.563Z,1.70
2018-07-08T23:38:32.087Z,2.43
2018-07-08T23:41:00.311Z,2.20
2018-07-08T23:43:27.828Z,2.93
2018-07-08T23:45:55.295Z,1.80
2018-07-08T23:48:23.531Z,2.10
2018-07-08T23:50:51.024Z,1.90
2018-07-08T23:53:18.579Z,2.37
2018-07-08T23:55:46.047Z,2.07
2018-07-08T23:58:13.612Z,2.20
